Historique des stations

Retrouvez les conditions météo en temps réel en cliquant ici...

Station météo de Besson

Altitude de la station : 248 m







Données météorologiques pour le 20/10/2020
Date
Heure
Températures Humidité Point de rosée Vitesse
du vent
Direction Rafales Windchill Pression Pluviométrie
Cumul
Date
Heure
Températures Humidité Point de rosée Vitesse
du vent
Direction Rafales Windchill Pression Pluviométrie
Cumul
20/10/2020 18:4516.9 °C67 %10.6 °C-SSE58 km/h17.2 1008 hPa0.2 mm
20/10/2020 18:3016.8 °C69 %11.1 °C-SE58 km/h16.7 1008 hPa0.2 mm
20/10/2020 18:1516.6 °C71 %11.1 °C-SE58 km/h16.7 1008 hPa0.2 mm
20/10/2020 18:0016.6 °C71 %11.1 °C8 km/hSE58 km/h16.7 1009 hPa0.2 mm
20/10/2020 17:4516.8 °C70 %11.1 °C3 km/hSE58 km/h16.7 1009 hPa0.2 mm
20/10/2020 17:3016.9 °C70 %11.1 °C5 km/hSO58 km/h16.7 1009 hPa0.2 mm
20/10/2020 17:1516.7 °C71 %11.1 °C2 km/hSE58 km/h16.7 1009 hPa0.2 mm
20/10/2020 16:5916.8 °C70 %11.1 °C13 km/hSE58 km/h16.1 1009 hPa0.2 mm
20/10/2020 16:4416.8 °C70 %11.1 °C16 km/hSE58 km/h15.0 1009 hPa0.2 mm
20/10/2020 16:2916.9 °C70 %11.1 °C5 km/hSE58 km/h16.7 1009 hPa0.2 mm
20/10/2020 16:1416.8 °C69 %11.1 °C2 km/hSE58 km/h16.7 1010 hPa0.2 mm
20/10/2020 15:5916.8 °C70 %11.1 °C2 km/hSSE58 km/h16.7 1010 hPa0.2 mm
20/10/2020 15:4416.7 °C69 %11.1 °C-SE58 km/h16.7 1010 hPa0.2 mm
20/10/2020 15:2916.6 °C71 %11.1 °C8 km/hSE58 km/h16.7 1010 hPa0.2 mm
20/10/2020 15:1416.2 °C73 %11.1 °C13 km/hSE58 km/h15.6 1010 hPa0.2 mm
20/10/2020 14:5915.9 °C75 %11.7 °C6 km/hESE58 km/h16.1 1010 hPa0.2 mm
20/10/2020 14:4415.8 °C78 %12.2 °C8 km/hENE58 km/h16.1 1010 hPa0.2 mm
20/10/2020 14:2916.0 °C77 %12.2 °C13 km/hESE58 km/h15.6 1010 hPa0.2 mm
20/10/2020 14:1416.2 °C76 %12.2 °C2 km/hSE58 km/h16.1 1010 hPa0.2 mm
20/10/2020 13:5916.4 °C74 %11.7 °C-SE58 km/h16.7 1010 hPa0.2 mm
20/10/2020 13:4416.8 °C71 %11.7 °C2 km/hSE58 km/h16.7 1010 hPa-
20/10/2020 13:2916.8 °C71 %11.7 °C-SSE58 km/h16.7 1010 hPa-
20/10/2020 13:1416.7 °C71 %11.1 °C14 km/hSE58 km/h15.6 1010 hPa-
20/10/2020 12:5916.8 °C72 %11.7 °C11 km/hSE58 km/h16.1 1011 hPa-
20/10/2020 12:4416.9 °C71 %11.7 °C14 km/hSSO58 km/h15.6 1011 hPa-
20/10/2020 12:2916.8 °C71 %11.7 °C-SE58 km/h16.7 1011 hPa-
20/10/2020 12:1416.9 °C70 %11.7 °C14 km/hSSO58 km/h16.1 1011 hPa-
20/10/2020 11:5917.1 °C69 %11.1 °C2 km/hSSE58 km/h17.2 1011 hPa-
20/10/2020 11:4417.1 °C69 %11.1 °C19 km/hSE58 km/h15.0 1011 hPa-
20/10/2020 11:3016.7 °C71 %11.7 °C8 km/hSSE58 km/h16.7 1011 hPa-
20/10/2020 11:1516.6 °C71 %11.1 °C3 km/hSE58 km/h16.7 1011 hPa-
20/10/2020 11:0016.7 °C70 %11.1 °C2 km/hN58 km/h16.7 1011 hPa-
20/10/2020 10:4516.5 °C70 %11.1 °C-N58 km/h16.7 1011 hPa-
20/10/2020 10:3016.3 °C71 %11.1 °C34 km/hNNO58 km/h12.2 1011 hPa-
20/10/2020 10:1516.3 °C70 %10.6 °C5 km/hS58 km/h16.1 1011 hPa-
20/10/2020 10:0016.0 °C71 %10.6 °C8 km/hSSE58 km/h16.1 1011 hPa-
20/10/2020 09:4515.8 °C71 %10.6 °C-SE58 km/h15.6 1011 hPa-
20/10/2020 09:3015.5 °C72 %10.6 °C3 km/hSE58 km/h15.6 1011 hPa-
20/10/2020 09:1515.4 °C72 %10.6 °C5 km/hSSE58 km/h15.6 1011 hPa-
20/10/2020 08:59-74 %-----1011 hPa-
20/10/2020 08:44-74 %-----1011 hPa-
20/10/2020 08:29-74 %-----1011 hPa-
20/10/2020 08:14-74 %-----1011 hPa-
20/10/2020 07:59-74 %-----1011 hPa-
20/10/2020 07:44-74 %-----1011 hPa-
20/10/2020 07:29-74 %-----1011 hPa-
20/10/2020 07:14-74 %-----1011 hPa-
20/10/2020 06:5915.0 °C72 %10.0 °C8 km/hSSE58 km/h15.0 1011 hPa-
20/10/2020 06:4415.1 °C72 %10.0 °C10 km/hSO58 km/h14.4 1011 hPa-
20/10/2020 06:2915.1 °C72 %10.0 °C5 km/hSSE58 km/h15.0 1011 hPa-
20/10/2020 06:1515.3 °C71 %10.0 °C11 km/hS58 km/h15.0 1011 hPa-
20/10/2020 06:0015.3 °C71 %10.0 °C14 km/hSSO58 km/h14.4 1011 hPa-
20/10/2020 05:4515.3 °C71 %10.0 °C37 km/hSSO58 km/h11.1 1011 hPa-
20/10/2020 05:3015.2 °C71 %10.0 °C29 km/hE58 km/h11.7 1011 hPa-
20/10/2020 05:1515.2 °C71 %10.0 °C27 km/hSO58 km/h11.7 1011 hPa-
20/10/2020 05:0015.1 °C71 %10.0 °C21 km/hNNE58 km/h12.8 1011 hPa-
20/10/2020 04:4515.2 °C71 %10.0 °C5 km/hSE58 km/h15.0 1011 hPa-
20/10/2020 04:3015.2 °C71 %10.0 °C27 km/hO58 km/h11.7 1011 hPa-
20/10/2020 04:1515.1 °C71 %10.0 °C34 km/hSSO58 km/h11.1 1011 hPa-
20/10/2020 04:0015.1 °C71 %10.0 °C31 km/hSO58 km/h11.1 1011 hPa-
20/10/2020 03:4514.9 °C72 %10.0 °C29 km/hNO58 km/h11.7 1011 hPa-
20/10/2020 03:3014.8 °C72 %10.0 °C24 km/hO58 km/h12.2 1012 hPa-
20/10/2020 03:1514.7 °C72 %9.4 °C32 km/hE58 km/h10.6 1012 hPa-
20/10/2020 03:0014.7 °C71 %9.4 °C14 km/hSO58 km/h12.8 1012 hPa-
20/10/2020 02:4514.6 °C71 %9.4 °C13 km/hSSO58 km/h13.3 1012 hPa-
20/10/2020 02:2914.6 °C71 %9.4 °C19 km/hSSO58 km/h12.2 1012 hPa-
20/10/2020 02:1414.5 °C71 %9.4 °C6 km/hSSO58 km/h14.4 1012 hPa-
20/10/2020 01:5914.4 °C71 %9.4 °C14 km/hSSO58 km/h12.8 1012 hPa-
20/10/2020 01:4414.3 °C72 %9.4 °C10 km/hSO56 km/h13.9 1012 hPa-
20/10/2020 01:2914.2 °C73 %9.4 °C23 km/hSO43 km/h11.7 1012 hPa-
20/10/2020 01:1414.1 °C73 %9.4 °C11 km/hS39 km/h12.8 1012 hPa-
20/10/2020 00:5914.0 °C73 %9.4 °C5 km/hS39 km/h13.9 1012 hPa-
20/10/2020 00:4413.9 °C73 %8.9 °C14 km/hSSO39 km/h12.2 1012 hPa-
20/10/2020 00:2913.9 °C73 %8.9 °C37 km/hESE37 km/h9.4 1013 hPa-
20/10/2020 00:1513.8 °C74 %9.4 °C16 km/hSO35 km/h11.7 1013 hPa-
20/10/2020 00:0013.7 °C74 %8.9 °C2 km/hNNE39 km/h13.9 1013 hPa-


Minima :

Température : 13.7 °C
Humidité : 67 %
Point de rosée : 8.9 °C
Vent moyen : 2 km/h
Windchill : 9.4
Pression atm. : 1008 hPa
Maxima :

Température : 17.1 °C
Humidité : 78 %
Point de rosée : 12.2 °C
Vent moyen : 37 km/h
Windchill : 17.2
Pression atm. : 1013 hPa
Rafales max : 58 km/h
Cumul de pluie sur 24H : 0.2 mm

Bessoin est une commune du département Allier (03).
La station météorologique du réseau de l'association la plus proche de Besson est celle de Autry-Issards



Icône Facebook Association Météo Centre Icône Twitter Association Météo Centre Icône Chaîne Youtube Association Météo Centre Icône contact Association Météo Centre Icône Insta Association Météo Centre